sensor_id;sensor_type;location;lat;lon;timestamp;temperature;humidity
12223;DHT22;6174;49.058;8.524;2023-12-20T06:00:42;7.00;99.90
12223;DHT22;6174;49.058;8.524;2023-12-20T06:03:12;7.00;99.90
12223;DHT22;6174;49.058;8.524;2023-12-20T06:05:39;7.10;99.90
12223;DHT22;6174;49.058;8.524;2023-12-20T06:08:06;7.10;99.90
12223;DHT22;6174;49.058;8.524;2023-12-20T06:10:33;7.10;99.90
12223;DHT22;6174;49.058;8.524;2023-12-20T06:13:00;7.10;99.90
12223;DHT22;6174;49.058;8.524;2023-12-20T06:15:27;7.10;99.90
12223;DHT22;6174;49.058;8.524;2023-12-20T06:17:55;7.10;99.90
12223;DHT22;6174;49.058;8.524;2023-12-20T06:20:22;7.20;99.90
12223;DHT22;6174;49.058;8.524;2023-12-20T06:22:48;7.20;99.90
12223;DHT22;6174;49.058;8.524;2023-12-20T06:25:18;7.20;99.90
12223;DHT22;6174;49.058;8.524;2023-12-20T06:27:47;7.30;99.90
12223;DHT22;6174;49.058;8.524;2023-12-20T06:30:15;7.30;99.90
12223;DHT22;6174;49.058;8.524;2023-12-20T06:32:42;7.30;99.90
12223;DHT22;6174;49.058;8.524;2023-12-20T06:35:10;7.20;99.90
12223;DHT22;6174;49.058;8.524;2023-12-20T06:37:37;7.20;99.90
12223;DHT22;6174;49.058;8.524;2023-12-20T06:40:08;7.20;99.90
12223;DHT22;6174;49.058;8.524;2023-12-20T06:42:35;7.20;99.90
12223;DHT22;6174;49.058;8.524;2023-12-20T06:45:03;7.20;99.90
12223;DHT22;6174;49.058;8.524;2023-12-20T06:47:30;7.20;99.90
12223;DHT22;6174;49.058;8.524;2023-12-20T06:49:57;7.20;99.90
12223;DHT22;6174;49.058;8.524;2023-12-20T06:52:26;7.20;99.90
12223;DHT22;6174;49.058;8.524;2023-12-20T06:54:52;7.20;99.90
12223;DHT22;6174;49.058;8.524;2023-12-20T06:57:21;7.20;99.90
12223;DHT22;6174;49.058;8.524;2023-12-20T06:59:52;7.10;99.90
12223;DHT22;6174;49.058;8.524;2023-12-20T07:02:19;7.10;99.90
12223;DHT22;6174;49.058;8.524;2023-12-20T07:04:46;7.10;99.90
12223;DHT22;6174;49.058;8.524;2023-12-20T07:07:13;7.10;99.90
12223;DHT22;6174;49.058;8.524;2023-12-20T07:09:44;7.00;99.90
12223;DHT22;6174;49.058;8.524;2023-12-20T07:12:16;7.20;99.90
12223;DHT22;6174;49.058;8.524;2023-12-20T07:14:44;7.10;99.90
12223;DHT22;6174;49.058;8.524;2023-12-20T07:17:11;7.00;99.90
12223;DHT22;6174;49.058;8.524;2023-12-20T07:19:42;7.00;99.90
12223;DHT22;6174;49.058;8.524;2023-12-20T07:22:09;7.00;99.90
12223;DHT22;6174;49.058;8.524;2023-12-20T07:24:36;7.00;99.90
12223;DHT22;6174;49.058;8.524;2023-12-20T07:27:05;7.00;99.90
12223;DHT22;6174;49.058;8.524;2023-12-20T07:29:32;7.10;99.90
12223;DHT22;6174;49.058;8.524;2023-12-20T07:31:58;7.10;99.90
12223;DHT22;6174;49.058;8.524;2023-12-20T07:34:25;7.20;99.90
12223;DHT22;6174;49.058;8.524;2023-12-20T07:36:52;7.10;99.90
12223;DHT22;6174;49.058;8.524;2023-12-20T07:39:19;7.00;99.90
12223;DHT22;6174;49.058;8.524;2023-12-20T07:41:46;7.00;99.90
12223;DHT22;6174;49.058;8.524;2023-12-20T07:44:15;7.00;99.90
12223;DHT22;6174;49.058;8.524;2023-12-20T07:46:42;7.00;99.90
12223;DHT22;6174;49.058;8.524;2023-12-20T07:49:09;6.90;99.90
12223;DHT22;6174;49.058;8.524;2023-12-20T07:51:36;7.00;99.90
12223;DHT22;6174;49.058;8.524;2023-12-20T07:54:03;7.10;99.90
12223;DHT22;6174;49.058;8.524;2023-12-20T07:56:30;6.90;99.90
12223;DHT22;6174;49.058;8.524;2023-12-20T07:58:57;6.90;99.90
12223;DHT22;6174;49.058;8.524;2023-12-20T08:58:45;7.10;99.90
12223;DHT22;6174;49.058;8.524;2023-12-20T09:01:17;7.10;99.90
12223;DHT22;6174;49.058;8.524;2023-12-20T09:06:19;7.10;99.90
12223;DHT22;6174;49.058;8.524;2023-12-20T09:08:46;7.40;99.90
12223;DHT22;6174;49.058;8.524;2023-12-20T09:11:13;7.10;99.90
12223;DHT22;6174;49.058;8.524;2023-12-20T09:13:42;7.20;99.90
12223;DHT22;6174;49.058;8.524;2023-12-20T09:16:09;7.20;99.90
12223;DHT22;6174;49.058;8.524;2023-12-20T09:18:36;7.50;99.90
12223;DHT22;6174;49.058;8.524;2023-12-20T09:21:03;7.20;99.90
12223;DHT22;6174;49.058;8.524;2023-12-20T09:23:31;7.30;99.90
12223;DHT22;6174;49.058;8.524;2023-12-20T09:25:58;7.30;99.90
12223;DHT22;6174;49.058;8.524;2023-12-20T09:28:24;7.30;99.90
12223;DHT22;6174;49.058;8.524;2023-12-20T09:30:53;7.30;99.90
12223;DHT22;6174;49.058;8.524;2023-12-20T09:33:19;7.30;99.90
12223;DHT22;6174;49.058;8.524;2023-12-20T09:35:46;7.30;99.90
12223;DHT22;6174;49.058;8.524;2023-12-20T09:38:14;7.30;99.90
12223;DHT22;6174;49.058;8.524;2023-12-20T09:40:42;7.50;99.90
12223;DHT22;6174;49.058;8.524;2023-12-20T09:43:11;7.80;99.90
12223;DHT22;6174;49.058;8.524;2023-12-20T09:45:40;7.60;99.90
12223;DHT22;6174;49.058;8.524;2023-12-20T09:48:10;7.50;99.90
12223;DHT22;6174;49.058;8.524;2023-12-20T09:50:38;7.50;99.90
12223;DHT22;6174;49.058;8.524;2023-12-20T09:53:05;7.40;99.90
12223;DHT22;6174;49.058;8.524;2023-12-20T09:55:36;7.80;99.90
12223;DHT22;6174;49.058;8.524;2023-12-20T09:58:05;7.50;99.90
12223;DHT22;6174;49.058;8.524;2023-12-20T10:00:34;7.60;99.90
12223;DHT22;6174;49.058;8.524;2023-12-20T10:03:01;7.80;99.90
12223;DHT22;6174;49.058;8.524;2023-12-20T10:05:31;7.80;99.90
12223;DHT22;6174;49.058;8.524;2023-12-20T10:07:58;7.50;99.90
12223;DHT22;6174;49.058;8.524;2023-12-20T10:10:26;7.50;99.90
12223;DHT22;6174;49.058;8.524;2023-12-20T10:13:03;7.80;99.90
12223;DHT22;6174;49.058;8.524;2023-12-20T10:15:31;7.50;99.90
12223;DHT22;6174;49.058;8.524;2023-12-20T10:17:58;7.50;99.90
12223;DHT22;6174;49.058;8.524;2023-12-20T10:20:25;7.50;99.90
12223;DHT22;6174;49.058;8.524;2023-12-20T10:22:55;7.50;99.90
12223;DHT22;6174;49.058;8.524;2023-12-20T10:25:22;7.50;99.90
12223;DHT22;6174;49.058;8.524;2023-12-20T10:27:50;7.40;99.90
12223;DHT22;6174;49.058;8.524;2023-12-20T10:30:17;7.40;99.90
12223;DHT22;6174;49.058;8.524;2023-12-20T10:32:44;7.90;99.90
12223;DHT22;6174;49.058;8.524;2023-12-20T10:35:11;7.50;99.90
12223;DHT22;6174;49.058;8.524;2023-12-20T10:37:38;7.70;99.90
12223;DHT22;6174;49.058;8.524;2023-12-20T10:40:08;7.60;99.90
12223;DHT22;6174;49.058;8.524;2023-12-20T10:42:35;7.50;99.90
12223;DHT22;6174;49.058;8.524;2023-12-20T10:45:03;7.50;99.90
12223;DHT22;6174;49.058;8.524;2023-12-20T10:47:31;7.60;99.90
12223;DHT22;6174;49.058;8.524;2023-12-20T10:49:59;7.60;99.90
12223;DHT22;6174;49.058;8.524;2023-12-20T10:52:28;7.60;99.90
12223;DHT22;6174;49.058;8.524;2023-12-20T10:54:56;7.60;99.90
12223;DHT22;6174;49.058;8.524;2023-12-20T10:57:27;7.60;99.90
12223;DHT22;6174;49.058;8.524;2023-12-20T10:59:59;7.60;99.90
12223;DHT22;6174;49.058;8.524;2023-12-20T11:02:30;7.50;99.90
12223;DHT22;6174;49.058;8.524;2023-12-20T11:05:06;7.60;99.90
12223;DHT22;6174;49.058;8.524;2023-12-20T11:07:40;7.70;99.90
12223;DHT22;6174;49.058;8.524;2023-12-20T11:10:13;7.60;99.90
12223;DHT22;6174;49.058;8.524;2023-12-20T11:12:47;7.80;99.90
12223;DHT22;6174;49.058;8.524;2023-12-20T11:15:16;7.60;99.90
12223;DHT22;6174;49.058;8.524;2023-12-20T11:17:45;7.60;99.90
12223;DHT22;6174;49.058;8.524;2023-12-20T11:20:12;7.60;99.90
12223;DHT22;6174;49.058;8.524;2023-12-20T11:22:40;7.60;99.90
12223;DHT22;6174;49.058;8.524;2023-12-20T11:25:17;7.60;99.90
12223;DHT22;6174;49.058;8.524;2023-12-20T11:28:06;7.70;99.90
12223;DHT22;6174;49.058;8.524;2023-12-20T11:30:46;7.70;99.90
12223;DHT22;6174;49.058;8.524;2023-12-20T11:33:14;7.90;99.90
12223;DHT22;6174;49.058;8.524;2023-12-20T11:35:41;7.70;99.90
12223;DHT22;6174;49.058;8.524;2023-12-20T11:38:09;7.70;99.90
12223;DHT22;6174;49.058;8.524;2023-12-20T11:40:36;7.50;99.90
12223;DHT22;6174;49.058;8.524;2023-12-20T11:43:05;8.00;99.90
12223;DHT22;6174;49.058;8.524;2023-12-20T11:45:32;7.70;99.90
12223;DHT22;6174;49.058;8.524;2023-12-20T11:48:01;7.70;99.90
12223;DHT22;6174;49.058;8.524;2023-12-20T11:50:33;8.00;99.90
12223;DHT22;6174;49.058;8.524;2023-12-20T11:53:00;8.00;99.90
12223;DHT22;6174;49.058;8.524;2023-12-20T11:55:27;7.90;99.90
12223;DHT22;6174;49.058;8.524;2023-12-20T11:57:54;7.80;99.90
12223;DHT22;6174;49.058;8.524;2023-12-20T12:00:22;7.70;99.90
12223;DHT22;6174;49.058;8.524;2023-12-20T12:02:56;7.80;99.90
12223;DHT22;6174;49.058;8.524;2023-12-20T12:05:23;7.80;99.90
12223;DHT22;6174;49.058;8.524;2023-12-20T12:07:50;7.70;99.90
12223;DHT22;6174;49.058;8.524;2023-12-20T12:10:18;7.80;99.90
12223;DHT22;6174;49.058;8.524;2023-12-20T12:12:45;7.90;99.90
12223;DHT22;6174;49.058;8.524;2023-12-20T12:15:14;8.20;99.90
12223;DHT22;6174;49.058;8.524;2023-12-20T12:17:42;7.90;99.90
12223;DHT22;6174;49.058;8.524;2023-12-20T12:20:10;7.90;99.90
12223;DHT22;6174;49.058;8.524;2023-12-20T12:22:38;7.80;99.90
12223;DHT22;6174;49.058;8.524;2023-12-20T12:25:11;7.70;99.90
12223;DHT22;6174;49.058;8.524;2023-12-20T12:27:40;7.70;99.90
12223;DHT22;6174;49.058;8.524;2023-12-20T12:30:09;7.70;99.90
12223;DHT22;6174;49.058;8.524;2023-12-20T12:32:40;7.70;99.90
12223;DHT22;6174;49.058;8.524;2023-12-20T12:35:09;7.60;99.90
12223;DHT22;6174;49.058;8.524;2023-12-20T12:37:38;7.60;99.90
12223;DHT22;6174;49.058;8.524;2023-12-20T12:40:07;7.60;99.90
12223;DHT22;6174;49.058;8.524;2023-12-20T12:42:33;7.60;99.90
12223;DHT22;6174;49.058;8.524;2023-12-20T12:45:00;7.40;99.90
12223;DHT22;6174;49.058;8.524;2023-12-20T12:47:27;7.60;99.90
12223;DHT22;6174;49.058;8.524;2023-12-20T12:49:54;7.60;99.90
12223;DHT22;6174;49.058;8.524;2023-12-20T12:52:22;7.50;99.90
12223;DHT22;6174;49.058;8.524;2023-12-20T12:54:49;7.60;99.90
12223;DHT22;6174;49.058;8.524;2023-12-20T12:57:16;7.60;99.90
12223;DHT22;6174;49.058;8.524;2023-12-20T12:59:43;7.60;99.90
12223;DHT22;6174;49.058;8.524;2023-12-20T13:02:11;7.60;99.90
12223;DHT22;6174;49.058;8.524;2023-12-20T13:04:39;7.50;99.90
12223;DHT22;6174;49.058;8.524;2023-12-20T13:07:06;7.70;99.90
12223;DHT22;6174;49.058;8.524;2023-12-20T13:09:34;7.60;99.90
12223;DHT22;6174;49.058;8.524;2023-12-20T13:12:01;7.60;99.90
12223;DHT22;6174;49.058;8.524;2023-12-20T13:14:29;7.60;99.90
12223;DHT22;6174;49.058;8.524;2023-12-20T13:17:00;7.60;99.90
12223;DHT22;6174;49.058;8.524;2023-12-20T13:19:26;7.60;99.90
12223;DHT22;6174;49.058;8.524;2023-12-20T13:21:53;7.60;99.90
12223;DHT22;6174;49.058;8.524;2023-12-20T13:24:20;7.60;99.90
12223;DHT22;6174;49.058;8.524;2023-12-20T13:26:48;7.60;99.90
12223;DHT22;6174;49.058;8.524;2023-12-20T13:29:15;7.60;99.90
12223;DHT22;6174;49.058;8.524;2023-12-20T13:31:42;7.50;99.90
12223;DHT22;6174;49.058;8.524;2023-12-20T13:34:09;7.50;99.90
12223;DHT22;6174;49.058;8.524;2023-12-20T13:36:35;7.60;99.90
12223;DHT22;6174;49.058;8.524;2023-12-20T13:39:06;7.50;99.90
12223;DHT22;6174;49.058;8.524;2023-12-20T13:41:33;7.50;99.90
12223;DHT22;6174;49.058;8.524;2023-12-20T13:44:04;7.50;99.90
12223;DHT22;6174;49.058;8.524;2023-12-20T13:46:30;7.50;99.90
12223;DHT22;6174;49.058;8.524;2023-12-20T13:48:57;7.50;99.90
12223;DHT22;6174;49.058;8.524;2023-12-20T13:51:25;7.60;99.90
12223;DHT22;6174;49.058;8.524;2023-12-20T13:53:51;7.60;99.90
12223;DHT22;6174;49.058;8.524;2023-12-20T13:56:19;7.60;99.90
12223;DHT22;6174;49.058;8.524;2023-12-20T13:58:46;7.60;99.90
12223;DHT22;6174;49.058;8.524;2023-12-20T14:01:14;7.60;99.90
12223;DHT22;6174;49.058;8.524;2023-12-20T14:03:41;7.60;99.90
12223;DHT22;6174;49.058;8.524;2023-12-20T14:12:25;7.50;99.90
12223;DHT22;6174;49.058;8.524;2023-12-20T14:14:52;7.40;99.90
12223;DHT22;6174;49.058;8.524;2023-12-20T14:17:21;7.40;99.90
12223;DHT22;6174;49.058;8.524;2023-12-20T14:19:50;7.40;99.90
12223;DHT22;6174;49.058;8.524;2023-12-20T14:22:17;7.40;99.90
12223;DHT22;6174;49.058;8.524;2023-12-20T14:24:44;7.30;99.90
12223;DHT22;6174;49.058;8.524;2023-12-20T14:27:11;7.30;99.90
12223;DHT22;6174;49.058;8.524;2023-12-20T14:29:40;7.30;99.90
12223;DHT22;6174;49.058;8.524;2023-12-20T14:32:06;7.30;99.90
12223;DHT22;6174;49.058;8.524;2023-12-20T14:34:33;7.20;99.90
12223;DHT22;6174;49.058;8.524;2023-12-20T14:37:00;7.20;99.90
12223;DHT22;6174;49.058;8.524;2023-12-20T14:39:26;7.10;99.90
12223;DHT22;6174;49.058;8.524;2023-12-20T14:41:53;7.10;99.90
12223;DHT22;6174;49.058;8.524;2023-12-20T14:44:20;7.10;99.90
12223;DHT22;6174;49.058;8.524;2023-12-20T14:46:49;7.10;99.90
12223;DHT22;6174;49.058;8.524;2023-12-20T14:49:16;7.20;99.90
12223;DHT22;6174;49.058;8.524;2023-12-20T14:51:44;7.20;99.90
12223;DHT22;6174;49.058;8.524;2023-12-20T14:54:13;7.10;99.90
12223;DHT22;6174;49.058;8.524;2023-12-20T14:56:40;7.10;99.90
12223;DHT22;6174;49.058;8.524;2023-12-20T14:59:07;7.10;99.90
12223;DHT22;6174;49.058;8.524;2023-12-20T15:01:33;7.10;99.90
12223;DHT22;6174;49.058;8.524;2023-12-20T15:04:03;7.10;99.90
12223;DHT22;6174;49.058;8.524;2023-12-20T15:06:30;7.10;99.90
12223;DHT22;6174;49.058;8.524;2023-12-20T15:08:58;7.00;99.90
12223;DHT22;6174;49.058;8.524;2023-12-20T15:11:25;7.10;99.90
12223;DHT22;6174;49.058;8.524;2023-12-20T15:13:52;7.00;99.90
12223;DHT22;6174;49.058;8.524;2023-12-20T15:16:21;7.10;99.90
12223;DHT22;6174;49.058;8.524;2023-12-20T15:18:48;7.00;99.90
12223;DHT22;6174;49.058;8.524;2023-12-20T15:21:17;7.10;99.90
12223;DHT22;6174;49.058;8.524;2023-12-20T15:23:44;7.00;99.90
12223;DHT22;6174;49.058;8.524;2023-12-20T15:26:18;7.00;99.90
12223;DHT22;6174;49.058;8.524;2023-12-20T15:28:45;7.00;99.90
12223;DHT22;6174;49.058;8.524;2023-12-20T15:31:14;7.00;99.90
12223;DHT22;6174;49.058;8.524;2023-12-20T15:33:41;7.00;99.90
12223;DHT22;6174;49.058;8.524;2023-12-20T15:36:08;7.10;99.90
12223;DHT22;6174;49.058;8.524;2023-12-20T15:38:36;7.10;99.90
12223;DHT22;6174;49.058;8.524;2023-12-20T15:41:04;7.10;99.90
12223;DHT22;6174;49.058;8.524;2023-12-20T15:43:30;7.10;99.90
12223;DHT22;6174;49.058;8.524;2023-12-20T15:45:57;7.20;99.90
12223;DHT22;6174;49.058;8.524;2023-12-20T15:48:24;7.20;99.90
12223;DHT22;6174;49.058;8.524;2023-12-20T15:50:55;7.20;99.90
12223;DHT22;6174;49.058;8.524;2023-12-20T15:53:22;7.20;99.90
12223;DHT22;6174;49.058;8.524;2023-12-20T15:55:50;7.30;99.90
12223;DHT22;6174;49.058;8.524;2023-12-20T15:58:17;7.30;99.90
12223;DHT22;6174;49.058;8.524;2023-12-20T16:00:43;7.30;99.90
12223;DHT22;6174;49.058;8.524;2023-12-20T16:03:13;7.40;99.90
12223;DHT22;6174;49.058;8.524;2023-12-20T16:05:41;7.40;99.90
12223;DHT22;6174;49.058;8.524;2023-12-20T16:08:08;7.40;99.90
12223;DHT22;6174;49.058;8.524;2023-12-20T16:10:35;7.40;99.90
12223;DHT22;6174;49.058;8.524;2023-12-20T16:13:03;7.40;99.90
12223;DHT22;6174;49.058;8.524;2023-12-20T16:15:29;7.40;99.90
12223;DHT22;6174;49.058;8.524;2023-12-20T16:17:57;7.40;99.90
12223;DHT22;6174;49.058;8.524;2023-12-20T16:20:24;7.40;99.90
12223;DHT22;6174;49.058;8.524;2023-12-20T16:22:51;7.40;99.90
12223;DHT22;6174;49.058;8.524;2023-12-20T16:25:18;7.30;99.90
12223;DHT22;6174;49.058;8.524;2023-12-20T16:27:44;7.30;99.90
12223;DHT22;6174;49.058;8.524;2023-12-20T16:30:15;7.20;99.90
12223;DHT22;6174;49.058;8.524;2023-12-20T16:32:42;7.20;99.90
12223;DHT22;6174;49.058;8.524;2023-12-20T16:35:08;7.20;99.90
12223;DHT22;6174;49.058;8.524;2023-12-20T16:37:35;7.90;99.90
12223;DHT22;6174;49.058;8.524;2023-12-20T16:40:04;7.10;99.90
12223;DHT22;6174;49.058;8.524;2023-12-20T16:42:31;7.10;99.90
12223;DHT22;6174;49.058;8.524;2023-12-20T16:45:00;7.10;99.90
12223;DHT22;6174;49.058;8.524;2023-12-20T16:47:28;7.10;99.90
12223;DHT22;6174;49.058;8.524;2023-12-20T16:49:55;7.40;99.90
12223;DHT22;6174;49.058;8.524;2023-12-20T16:52:21;7.10;99.90
12223;DHT22;6174;49.058;8.524;2023-12-20T16:54:48;7.00;99.90
12223;DHT22;6174;49.058;8.524;2023-12-20T16:57:18;7.10;99.90
12223;DHT22;6174;49.058;8.524;2023-12-20T16:59:46;7.10;99.90
12223;DHT22;6174;49.058;8.524;2023-12-20T17:02:13;7.00;99.90
12223;DHT22;6174;49.058;8.524;2023-12-20T17:04:41;7.10;99.90
12223;DHT22;6174;49.058;8.524;2023-12-20T17:07:08;7.00;99.90
12223;DHT22;6174;49.058;8.524;2023-12-20T17:09:35;7.10;99.90
12223;DHT22;6174;49.058;8.524;2023-12-20T17:12:04;7.00;99.90
12223;DHT22;6174;49.058;8.524;2023-12-20T17:14:33;7.10;99.90
12223;DHT22;6174;49.058;8.524;2023-12-20T17:17:00;7.10;99.90
12223;DHT22;6174;49.058;8.524;2023-12-20T17:19:26;7.20;99.90
12223;DHT22;6174;49.058;8.524;2023-12-20T17:21:56;7.10;99.90
12223;DHT22;6174;49.058;8.524;2023-12-20T17:24:23;7.10;99.90
12223;DHT22;6174;49.058;8.524;2023-12-20T17:26:50;7.10;99.90
12223;DHT22;6174;49.058;8.524;2023-12-20T17:29:17;7.10;99.90
12223;DHT22;6174;49.058;8.524;2023-12-20T17:31:43;7.30;99.90
12223;DHT22;6174;49.058;8.524;2023-12-20T17:34:10;7.20;99.90
12223;DHT22;6174;49.058;8.524;2023-12-20T17:36:39;7.20;99.90
12223;DHT22;6174;49.058;8.524;2023-12-20T17:39:14;7.20;99.90
12223;DHT22;6174;49.058;8.524;2023-12-20T17:41:41;7.20;99.90
12223;DHT22;6174;49.058;8.524;2023-12-20T17:44:09;7.50;99.90
12223;DHT22;6174;49.058;8.524;2023-12-20T17:46:38;7.20;99.90
12223;DHT22;6174;49.058;8.524;2023-12-20T17:49:05;7.20;99.90
12223;DHT22;6174;49.058;8.524;2023-12-20T17:51:32;7.20;99.90
12223;DHT22;6174;49.058;8.524;2023-12-20T17:53:58;7.20;99.90
12223;DHT22;6174;49.058;8.524;2023-12-20T17:56:29;7.20;99.90
12223;DHT22;6174;49.058;8.524;2023-12-20T17:58:55;7.20;99.90
12223;DHT22;6174;49.058;8.524;2023-12-20T18:01:22;7.20;99.90
12223;DHT22;6174;49.058;8.524;2023-12-20T18:03:49;7.20;99.90
12223;DHT22;6174;49.058;8.524;2023-12-20T18:06:16;7.20;99.90
12223;DHT22;6174;49.058;8.524;2023-12-20T18:08:42;7.30;99.90
12223;DHT22;6174;49.058;8.524;2023-12-20T18:11:09;7.30;99.90
12223;DHT22;6174;49.058;8.524;2023-12-20T18:13:37;7.30;99.90
12223;DHT22;6174;49.058;8.524;2023-12-20T18:31:32;7.30;99.90
12223;DHT22;6174;49.058;8.524;2023-12-20T18:34:04;7.20;99.90
12223;DHT22;6174;49.058;8.524;2023-12-20T18:36:49;7.30;99.90
12223;DHT22;6174;49.058;8.524;2023-12-20T18:39:18;7.50;99.90
12223;DHT22;6174;49.058;8.524;2023-12-20T18:44:28;7.20;99.90
12223;DHT22;6174;49.058;8.524;2023-12-20T18:47:03;7.20;99.90
12223;DHT22;6174;49.058;8.524;2023-12-20T18:49:34;7.00;99.90
12223;DHT22;6174;49.058;8.524;2023-12-20T18:52:15;7.10;99.90
12223;DHT22;6174;49.058;8.524;2023-12-20T19:05:38;7.00;99.90
12223;DHT22;6174;49.058;8.524;2023-12-20T19:08:06;7.10;99.90
12223;DHT22;6174;49.058;8.524;2023-12-20T19:10:53;7.20;99.90
12223;DHT22;6174;49.058;8.524;2023-12-20T19:13:22;7.10;99.90
12223;DHT22;6174;49.058;8.524;2023-12-20T19:15:56;7.10;99.90
12223;DHT22;6174;49.058;8.524;2023-12-20T19:18:23;7.00;99.90
12223;DHT22;6174;49.058;8.524;2023-12-20T19:20:56;7.10;99.90
12223;DHT22;6174;49.058;8.524;2023-12-20T19:23:23;7.10;99.90
12223;DHT22;6174;49.058;8.524;2023-12-20T19:25:54;7.10;99.90
12223;DHT22;6174;49.058;8.524;2023-12-20T19:28:21;7.10;99.90
12223;DHT22;6174;49.058;8.524;2023-12-20T19:30:54;7.10;99.90
12223;DHT22;6174;49.058;8.524;2023-12-20T19:33:22;7.10;99.90
12223;DHT22;6174;49.058;8.524;2023-12-20T19:35:50;7.10;99.90
12223;DHT22;6174;49.058;8.524;2023-12-20T19:38:18;7.20;99.90
12223;DHT22;6174;49.058;8.524;2023-12-20T19:40:46;7.10;99.90
12223;DHT22;6174;49.058;8.524;2023-12-20T19:43:15;7.10;99.90
12223;DHT22;6174;49.058;8.524;2023-12-20T19:45:47;7.20;99.90
12223;DHT22;6174;49.058;8.524;2023-12-20T19:48:21;7.10;99.90
12223;DHT22;6174;49.058;8.524;2023-12-20T19:50:49;7.50;99.90
12223;DHT22;6174;49.058;8.524;2023-12-20T19:53:36;7.20;99.90
12223;DHT22;6174;49.058;8.524;2023-12-20T19:56:07;7.20;99.90
12223;DHT22;6174;49.058;8.524;2023-12-20T19:58:37;7.20;99.90
12223;DHT22;6174;49.058;8.524;2023-12-20T20:01:07;7.10;99.90
12223;DHT22;6174;49.058;8.524;2023-12-20T20:03:34;7.10;99.90
12223;DHT22;6174;49.058;8.524;2023-12-20T20:06:00;7.50;99.90
12223;DHT22;6174;49.058;8.524;2023-12-20T20:08:27;7.20;99.90
12223;DHT22;6174;49.058;8.524;2023-12-20T20:10:55;7.20;99.90
12223;DHT22;6174;49.058;8.524;2023-12-20T20:13:22;7.20;99.90
12223;DHT22;6174;49.058;8.524;2023-12-20T20:15:49;7.30;99.90
12223;DHT22;6174;49.058;8.524;2023-12-20T20:20:49;7.20;99.90
12223;DHT22;6174;49.058;8.524;2023-12-20T20:23:16;7.20;99.90
12223;DHT22;6174;49.058;8.524;2023-12-20T20:25:43;7.20;99.90
12223;DHT22;6174;49.058;8.524;2023-12-20T20:28:11;7.20;99.90
12223;DHT22;6174;49.058;8.524;2023-12-20T20:30:38;7.20;99.90
12223;DHT22;6174;49.058;8.524;2023-12-20T20:33:05;7.20;99.90
12223;DHT22;6174;49.058;8.524;2023-12-20T20:35:31;7.40;99.90
12223;DHT22;6174;49.058;8.524;2023-12-20T20:37:58;7.50;99.90
12223;DHT22;6174;49.058;8.524;2023-12-20T20:40:25;7.30;99.90
12223;DHT22;6174;49.058;8.524;2023-12-20T20:42:52;7.30;99.90
12223;DHT22;6174;49.058;8.524;2023-12-20T20:45:20;7.30;99.90
12223;DHT22;6174;49.058;8.524;2023-12-20T20:47:48;7.20;99.90
12223;DHT22;6174;49.058;8.524;2023-12-20T20:50:15;7.40;99.90
12223;DHT22;6174;49.058;8.524;2023-12-20T20:52:46;7.20;99.90
12223;DHT22;6174;49.058;8.524;2023-12-20T20:55:14;7.20;99.90
12223;DHT22;6174;49.058;8.524;2023-12-20T20:57:41;7.20;99.90
12223;DHT22;6174;49.058;8.524;2023-12-20T21:00:09;7.20;99.90
12223;DHT22;6174;49.058;8.524;2023-12-20T21:02:37;7.20;99.90
12223;DHT22;6174;49.058;8.524;2023-12-20T21:05:05;7.20;99.90
12223;DHT22;6174;49.058;8.524;2023-12-20T21:07:32;7.10;99.90
12223;DHT22;6174;49.058;8.524;2023-12-20T21:10:03;7.10;99.90
12223;DHT22;6174;49.058;8.524;2023-12-20T21:12:30;7.10;99.90
12223;DHT22;6174;49.058;8.524;2023-12-20T21:14:59;7.10;99.90
12223;DHT22;6174;49.058;8.524;2023-12-20T21:17:26;7.10;99.90
12223;DHT22;6174;49.058;8.524;2023-12-20T21:19:58;7.10;99.90
12223;DHT22;6174;49.058;8.524;2023-12-20T21:22:25;7.00;99.90
12223;DHT22;6174;49.058;8.524;2023-12-20T21:24:55;7.50;99.90
12223;DHT22;6174;49.058;8.524;2023-12-20T21:27:25;7.10;99.90
12223;DHT22;6174;49.058;8.524;2023-12-20T21:29:52;7.10;99.90
12223;DHT22;6174;49.058;8.524;2023-12-20T21:32:21;7.10;99.90
12223;DHT22;6174;49.058;8.524;2023-12-20T21:34:48;7.50;99.90
12223;DHT22;6174;49.058;8.524;2023-12-20T21:37:25;7.20;99.90
12223;DHT22;6174;49.058;8.524;2023-12-20T21:39:59;7.60;99.90
12223;DHT22;6174;49.058;8.524;2023-12-20T23:09:32;7.40;99.90
